events-overview

Kinetic Half

 

Overall Women

Lake Anna State Park - Spotsylvania, VA 5/08/2010 08:00AM

** Results are for the private use of participants and are the Intellectual Property of Set Up Events. Unauthorized use of these results is prohibited.

Place Bib Co NAME CITY/STATE Rank SWIM Rank T1 Rank BIKE Rank T2 Rank RUN PENALTY TIME DQ
1443 Suzy McCulloch SerpicoColumbia MD700:23:12200:01:12102:38:50500:01:09301:44:24 04:48:44 
2447 Jocelyn CornmanLeetsdale PA3300:26:292700:01:42402:46:032200:01:29101:34:21 04:50:02 
3450 Jennifer LeiserCharlotte NC200:20:41600:01:22202:44:401100:01:17701:48:27 04:56:25 
4466 Meredith ColaizziGlenshaw PA1400:24:213500:01:51902:50:351000:01:15201:43:50 05:01:50 
5493 Lauren HenzlerAllison Park PA1700:24:433000:01:50302:45:082400:01:30801:48:42 05:01:51 
6419 Brianna CashWashington DC3500:26:56300:01:18602:48:58100:00:57401:45:14 05:03:22 
7453 Katie SteadmanWinchester VA4300:28:52700:01:221102:51:25200:01:01501:45:45 05:08:22 
8484 Beverly RichardsonFaber VA4100:28:331200:01:261302:52:312100:01:291101:51:52 05:15:49 
9472 Nicole BusschaertNewport News VA8000:33:00800:01:231002:50:503900:01:501001:50:22 05:17:24 
10409 Samantha DealtoBlacksburg VA3100:26:021600:01:292402:59:52700:01:101301:53:56 05:22:28 
11518 Deborah BattagliaSalt Lake City UT2900:25:461900:01:311702:56:59400:01:052301:57:55 05:23:15 
12496 Debra BrosnihanArlington VA3600:27:143600:01:51702:50:012000:01:293902:03:27 05:24:00 
13418 Lauren BogenbergerOdenton MD1200:24:043300:01:501602:54:352800:01:373602:02:53 05:24:58 
14448 Samantha GalpinArlington VA3400:26:563700:01:515003:10:024100:01:52601:46:50 05:27:29 
15465 Devon TroopHampstead MD4700:29:35900:01:25802:50:10600:01:104602:05:47 05:28:05 
16499 Amy McKeeWashington DC5400:30:214700:02:012503:00:384200:01:521401:53:58 05:28:48 
17469 Nicole WeidensaulLocust Grove VA3700:27:213400:01:503503:03:173100:01:401501:55:00 05:29:06 
18512 Cristina JudgeMarlboro NJ300:22:2710000:03:093803:03:416000:02:052201:57:49 05:29:09 
19488 Tara ElgieRichmond VA2100:24:582100:01:361802:57:315100:02:002601:59:3300:04:0005:29:36 
20467 Jennifer HolderbaumIrwin PA1500:24:304300:01:582302:59:304300:01:523402:01:54 05:29:43 
21476 Michelle PrendergastReston VA900:23:40400:01:201502:53:292700:01:365802:10:55 05:30:58 
22492 Melissa TallentAlexandria VA1900:24:534000:01:543403:02:534700:01:573302:01:36 05:33:11 
23421 Kate DernerVirginia Beach VA9100:34:023800:01:523603:03:181400:01:201201:53:10 05:33:41 
24487 Leslie CrowFort Mill SC1800:24:5210900:03:204803:09:371200:01:171701:55:52 05:34:57 
25414 Christina NuttingRockville MD2000:24:543200:01:501902:58:005800:02:045502:10:18 05:37:04 
26445 Sarah SharonRichmond VA5900:31:427200:02:342603:00:581300:01:182902:00:44 05:37:14 
27463 Nicolina PierceErie PA400:22:342400:01:405103:10:172300:01:293102:01:29 05:37:27 
28430 Michelle NowakCollege Park MD1600:24:351400:01:284703:09:314000:01:502802:00:12 05:37:35 
29410 Kristen DicarloVirginia Beach VA4800:29:35100:00:573103:02:291900:01:264102:04:13 05:38:38 
30555 Denise EverittMarion NY2800:25:225900:02:164403:04:565900:02:054202:04:26 05:39:05 
PlaceBibCoNAMECITY/STATERankSWIMRankT1RankBIKERankT2RankRUNPENALTYTIMEDQ
31527 Juda McGannonHunt Valley MD4900:29:392500:01:405203:10:495000:01:591801:56:20 05:40:26 
32542 Joanna SchmickelArlington VA9300:34:117500:02:354503:07:303400:01:471601:55:12 05:41:13 
33429 Allison MoonKing George VA1300:24:142200:01:381202:52:061500:01:247602:22:11 05:41:32 
34507 Emily ArmstrongRockville MD12300:39:014500:01:591402:53:221800:01:254902:06:50 05:42:36 
35511 Angela BrechtGlen Allen VA9400:34:273100:01:504203:04:363700:01:483202:01:31 05:44:11 
36482 Lisa KildayWashington DC8400:33:171500:01:292002:58:29800:01:135602:10:34 05:45:00 
37427 Jessica DiloretoErie PA2200:24:592800:01:437103:22:02900:01:141901:56:22 05:46:18 
38456 Jenny CrowWaxhaw NC8700:33:445700:02:143303:02:351600:01:244702:06:42 05:46:38 
39437 Caroline LauverArlington VA5100:30:00         05:47:06 
40531 Daria Vander VeerMiddlefield CT5300:30:051300:01:275303:11:315300:02:013502:02:14 05:47:17 
41600AMary KlimaArlington VA2500:25:101000:01:253703:03:363500:01:486902:16:14 05:48:11 
42436 Meaghan KentAlexandria VA2600:25:105300:02:074103:04:084800:01:586702:15:30 05:48:51 
43510 Carolyn VincentMorrisville NC10900:36:109100:02:543903:03:556400:02:124002:03:43 05:48:53 
44434 Katie DuncombeFalls Church VA1000:23:538000:02:375903:14:217500:02:255002:06:59 05:50:15 
45521 Lynn RatnavaleBethesda MD4400:28:539400:02:555403:11:403600:01:484502:05:22 05:50:36 
46502 Melanie ShepherdsonWashington DC6300:31:536600:02:236003:15:313200:01:454302:04:31 05:56:02 
47515 Alison RhyneSouthern Pines NC7700:32:4611400:03:482803:01:058400:02:357002:16:22 05:56:33 
48470 Anne-Marie AdamsSpringfield VA500:23:0811300:03:387903:26:5211800:04:133002:01:08 05:58:57 
49468 Maggie HopkinsHenrico VA10400:35:494900:02:036603:19:273300:01:462702:00:02 05:59:05 
50462 Jessica MitchellAlbany NY8600:33:328900:02:525603:12:396300:02:115302:08:19 05:59:32 
51478 Heather Black DarbyMcLean VA4200:28:461800:01:305503:12:078600:02:406302:14:33 05:59:34 
52422 Joanna GomezWashington DC10200:35:285500:02:094003:04:025600:02:037202:17:14 06:00:55 
53522 Monique RicoSouth Riding VA6100:31:512600:01:417303:23:40300:01:033802:03:26 06:01:39 
54471 Melody BalcetAlexandria VA10300:35:311700:01:294603:07:395700:02:046802:15:45 06:02:25 
55508 Suzanne TinsleyGlen Allen VA7500:32:426000:02:178303:28:023000:01:382401:57:59 06:02:36 
56420 Zoe BedfordVirginia Beach VA6900:32:217900:02:365803:13:2711400:04:015902:11:05 06:03:28 
57551 Eva Van StratumAston PA11600:36:589500:02:594903:09:551700:01:256602:15:20 06:06:36 
58458 Margaret GrayReston VA5200:30:042900:01:442903:01:594500:01:568802:31:28 06:07:08 
59417 Lindsay WalshPhiladelphia PA9200:34:079900:03:085703:13:175400:02:016502:15:19 06:07:51 
60416 Meghan ThielWashington DC100:19:252000:01:322703:01:016600:02:1510702:47:17 06:11:28 
61433 Nicole StollFredericksburg VA5800:31:364600:02:0010003:39:225500:02:012001:56:51 06:11:48 
PlaceBibCoNAMECITY/STATERankSWIMRankT1RankBIKERankT2RankRUNPENALTYTIMEDQ
62411 Amy CharleyRichmond, Va VA600:23:098200:02:419303:36:558000:02:315202:07:41 06:12:56 
63549 Shirley WoodwardArlington VA10100:35:2511900:04:126803:21:0510200:03:285402:09:50 06:13:58 
64524 Renata DentVienna VA4600:29:2012900:04:596903:21:128700:02:407102:16:38 06:14:47 
65557 Anne VivianiArlington VA11000:36:117000:02:336203:16:187900:02:307502:19:19 06:16:50 
66517 Shelley YoreColumbia MD6600:32:0611200:03:368103:27:0810400:03:326002:12:33 06:18:53 
67423 Kat GunsurCary NC8900:33:554800:02:0110603:43:428200:02:322501:58:03 06:20:10 
68514 Mira PanekBowie MD9600:34:3611600:03:588503:30:3810900:03:455102:07:35 06:20:30 
69461 Kate KonkovaHerndon VA12900:43:029600:03:008403:28:1512200:04:543702:03:00 06:22:09 
70452 Susan SchweersKennedyville MD13100:46:175100:02:067003:21:256900:02:185702:10:43 06:22:48 
71455 Jennifer BreidenbaughRichmond WA8300:33:136500:02:2211103:48:212500:01:322101:57:41 06:23:07 
72491 Susan PoorbaughAlexandria VA1100:23:544200:01:577703:25:374900:01:588702:30:07 06:23:31 
73500 Michele WalterAlexandria VA11900:37:265200:02:077503:24:168800:02:407402:17:52 06:24:19 
74454 Julia WilsonRichmond VA11300:36:307600:02:366703:20:159600:02:547802:22:47 06:25:01 
75475 Jacqueline McCarthyArlington VA6800:32:209200:02:5510103:39:2812000:04:234802:06:44 06:25:48 
76537 Leslie AnchorRockville MD3000:25:4710600:03:159803:39:1410700:03:396402:14:38 06:26:31 
77413 Megan FisherMidlothian VA6400:31:539000:02:548603:32:047600:02:257302:17:17 06:26:32 
78425 Jean ColekleitzFairfax VA12200:38:399800:03:056103:15:557800:02:308302:26:52 06:27:00 
79486 Gina ShandChesterfield VA5000:29:558100:02:397803:25:437700:02:268202:26:25 06:27:08 
80426 Lindsey CookWashington DC3900:27:2910300:03:104303:04:486800:02:1811002:52:20 06:30:03 
81457 Kelly DwyerNorfolk VA11200:36:254100:01:568203:27:176700:02:177902:22:48 06:30:41 
82520 Deanna BoehmGlen Allen VA7400:32:4210500:03:156303:16:5711100:03:479402:36:49 06:33:28 
83598ASuzanne DuncanGreensboro NC7100:32:2710400:03:106403:17:547100:02:2210202:39:00 06:34:52 
84535 Clare GirolamoReston VA6500:32:0513300:06:0411203:48:4611300:03:554402:04:49 06:35:37 
85523 Michele TuckerWoodbridge VA9500:34:2911500:03:498703:33:2211500:04:028002:24:55 06:40:35 
86540 Mary Ellen KinserAshland VA7000:32:2112800:04:5711003:47:498100:02:326202:13:55 06:41:32 
87479 Jennifer BlakesleeAlexandria VA8800:33:465400:02:0810203:41:317200:02:227702:22:44 06:42:29 
88603ATiffany O'ReillyFrederick MD10500:36:016800:02:297403:23:567300:02:239702:37:42 06:42:30 
89435 Karen HoldenVirginia Beach VA7800:32:475800:02:148003:26:5511900:04:139502:37:05 06:43:13 
90601AAlexandra KorabLeesburg VA7600:32:448800:02:529503:38:3712100:04:268102:25:31 06:44:06 
91439 Jill VandervortArlington VA2300:25:0810200:03:0910803:46:089200:02:438502:28:55 06:46:01 
92406 Danielle MarshallHyattsville MD4000:28:087800:02:369003:34:199500:02:5210002:38:13 06:46:05 
PlaceBibCoNAMECITY/STATERankSWIMRankT1RankBIKERankT2RankRUNPENALTYTIMEDQ
93516 Rosanna SellersFairfax VA9700:34:585600:02:137203:22:227000:02:1910402:44:37 06:46:26 
94538 Lisa BeckDurham NC6200:31:527400:02:357603:25:169700:02:5810502:45:16 06:47:54 
95432 Amanda SenaAlexandria VA11700:37:088500:02:509903:39:2010500:03:348402:27:14 06:50:04 
96547 Anne JohnsonEllicott City MD6700:32:127700:02:369403:38:302900:01:389202:35:17 06:50:11 
97504 Tracy DooleyArlington VA13600:50:5513100:05:2012604:02:079900:03:03901:50:13 06:51:37 
98441 Kelly HadiarisMidlothian VA8500:33:198300:02:4810303:41:487400:02:248902:31:34 06:51:51 
99545 Maggie CrnicArlington VA8200:33:053900:01:549603:38:498300:02:359802:37:58 06:54:18 
100528 Susan O'NealWilliamsburg VA12100:38:118700:02:519203:36:059300:02:449302:36:23 06:56:12 
101498 Katie GilleyFredericksburg VA12800:41:006300:02:218903:33:556500:02:139902:37:59 06:57:26 
102408 Jennifer ThullFredericksburg VA11500:36:5312300:04:3112704:03:0810100:03:206102:12:34 07:00:25 
103550 Abby GlassbergClarksville MD7300:32:4111100:03:3211603:53:4510000:03:138602:29:17 07:02:27 
104407 Amber RaulsMarshall VA11100:36:166900:02:2911303:49:168900:02:419602:37:39 07:08:19 
105544 Tina WordBeaverdam VA10000:35:2410800:03:2010403:42:078500:02:3810802:49:55 07:13:22 
106473 Elizabeth HansonAlexandria VA11400:36:3912200:04:3111903:54:0212500:06:449102:32:29 07:14:24 
107428 Meredith KimmelWashington DC12500:39:546700:02:299103:35:4111700:04:1111302:55:14 07:17:27 
108530 Carol ShufordBethesda MD7200:32:2812100:04:2911403:50:0012400:06:0310602:45:52 07:18:50 
109556 Dorothy RichManakin Sabot VA12700:40:114400:01:5910503:43:039000:02:4110902:51:40 07:19:32 
110483 Christy MageeFalls Church VA11800:37:089700:03:0310703:45:479400:02:4711202:54:49 07:23:32 
111474 Helen HoneywellBaltimore MD9900:35:137300:02:3510903:47:494400:01:5311502:56:44 07:24:10 
112497 Winnie BrownRichmond VA13700:54:1313700:09:03       07:24:14 
113495 Marta StadeliArlington VA12600:40:0911800:04:0612303:59:0711000:03:4510102:38:25 07:25:30 
114534 Julia MardersPotomac MD5700:31:3210100:03:098803:33:5510300:03:3012003:23:36 07:35:41 
115553 Catherine LeeCulpeper VA6000:31:486400:02:229703:39:039100:02:4211903:23:32 07:39:25 
116536 Donna SumptionArlington VA13200:46:4612700:04:4213004:12:3810600:03:369002:32:22 07:40:01 
117494 Christine LesandoOakton VA12000:37:3012600:04:4112504:01:1511200:03:5111102:52:55 07:40:10 
118431 Kat RichFalls Church VA9000:34:0111700:04:0311703:53:519800:03:0211603:06:52 07:41:47 
119526 Sheila JordanFairfax VA5600:31:2213600:08:4312404:00:3012600:06:4911402:55:41 07:43:03 
120505 Alissa KartonArlington VA13400:48:3513400:06:1912804:06:2511600:04:0610302:42:16 07:47:39 
121438 Cady SnyderArlington VA8100:33:048400:02:4812904:08:526100:02:0711703:07:06 07:53:55 
122449 Andrea GeorgeArlington VA10700:36:0712000:04:1311503:53:0612300:05:5211803:14:39 07:53:55 
123599AC. Jonah HollandRichmond VA7900:32:539300:02:5511803:53:574600:01:5612203:28:23 08:00:01 
PlaceBibCoNAMECITY/STATERankSWIMRankT1RankBIKERankT2RankRUNPENALTYTIMEDQ
124442 Christie JohnsonWashington DC9800:35:058600:02:5112203:58:2610800:03:4312103:28:13 08:08:15 
125546 Lisa DunnWilton CT4500:29:035000:02:053203:02:342600:01:35 DNF DNF 
126440 Neva FulkersonStone Ridge VA800:23:151100:01:26502:47:273800:01:49 DNF DNF 
127424 Kristin SchulzBoston MA3200:26:08500:01:212202:59:155200:02:00 DNF DNF 
128532 Jeanne DebonisBrecksville OH2700:25:167100:02:332102:58:336200:02:08 DNF DNF 
129460 Suzanne KinskySilver Spring MD2400:25:092300:01:406503:18:5412700:09:56 DNF DNF 
130539 Katherine HahnAlexandria VA10800:36:086200:02:2112003:57:01 DNF DNF DNF 
131541 Linda RumseyFairfax VA12400:39:1813000:05:0412103:57:46 DNF DNF DNF 
132519 Bibiana BeardsleySpringfield VA13300:47:2212400:04:3513104:27:06 DNF DNF DNF 
133543 Ruth SheridanTakoma Park MD10600:36:0312500:04:39 DNF DNF DNF DNF 
134552 Pamela ColemanWashington DC13800:56:3613200:05:58 DNF DNF DNF DNF 
135624BFChristine MackridesHolland PA3800:27:276100:02:173003:02:10       
136621BFJodi Hope AndersonRockville MD5500:30:5513500:06:3313204:30:40       
137622BFPriscilla DemeoAlexandria VA13500:50:5110700:03:17 DNF       
138623BFSally KiddSilver Spring MD13000:44:4411000:03:28 DNF       

** Results are for the private use of participants and are the Intellectual Property of Set Up Events. Unauthorized use of these results is prohibited.